Time;durP1;ratioP1;P1;durP2;ratioP2;P2;SDS_P1;SDS_P2;PMS_P1;PMS_P2;Temp;Humidity;BMP_temperature;BMP_pressure;BME280_temperature;BME280_humidity;BME280_pressure;Samples;Min_cycle;Max_cycle;Signal;HPM_P1;HPM_P2
2023/09/05 00:01:11;;;;;;;7.30;6.60;;;;;;;;;;5112316;28;20213;-70
2023/09/05 00:03:39;;;;;;;7.13;6.43;;;;;;;;;;5095067;28;20218;-70
2023/09/05 00:06:10;;;;;;;8.17;7.47;;;;;;;;;;5102697;28;20251;-70
2023/09/05 00:08:38;;;;;;;8.17;7.40;;;;;;;;;;5093710;28;20222;-70
2023/09/05 00:11:05;;;;;;;7.57;6.97;;;;;;;;;;5103727;28;20262;-70
2023/09/05 00:13:33;;;;;;;8.47;7.40;;;;;;;;;;5098382;28;20616;-70
2023/09/05 00:16:00;;;;;;;8.13;7.03;;;;;;;;;;5099399;28;20206;-70
2023/09/05 00:18:26;;;;;;;8.20;7.27;;;;;;;;;;5105126;28;20216;-70
2023/09/05 00:20:55;;;;;;;7.60;7.00;;;;;;;;;;5104622;28;20264;-70
2023/09/05 00:23:22;;;;;;;7.60;6.87;;;;;;;;;;5091805;28;20237;-70
2023/09/05 00:25:49;;;;;;;7.10;6.50;;;;;;;;;;5091530;28;20210;-70
2023/09/05 00:28:18;;;;;;;7.43;6.83;;;;;;;;;;5091101;28;20647;-69
2023/09/05 00:30:45;;;;;;;7.37;6.80;;;;;;;;;;5105232;28;20600;-69
2023/09/05 00:33:12;;;;;;;7.83;7.10;;;;;;;;;;5098629;28;20213;-70
2023/09/05 00:35:39;;;;;;;8.00;7.30;;;;;;;;;;5097981;28;20261;-69
2023/09/05 00:38:07;;;;;;;7.13;6.53;;;;;;;;;;5104476;28;20317;-69
2023/09/05 00:40:33;;;;;;;7.97;7.27;;;;;;;;;;5104881;28;20201;-69
2023/09/05 00:43:00;;;;;;;7.07;6.53;;;;;;;;;;5091590;28;20212;-70
2023/09/05 00:45:27;;;;;;;6.43;5.93;;;;;;;;;;5090953;28;20209;-70
2023/09/05 00:47:54;;;;;;;9.97;6.67;;;;;;;;;;5091338;28;20195;-70
2023/09/05 00:50:22;;;;;;;7.20;6.60;;;;;;;;;;5105910;28;20232;-70
2023/09/05 00:52:49;;;;;;;6.77;6.27;;;;;;;;;;5102631;28;20291;-70
2023/09/05 00:55:18;;;;;;;6.80;6.13;;;;;;;;;;5092651;28;20210;-70
2023/09/05 00:57:44;;;;;;;7.80;7.20;;;;;;;;;;5102185;28;20205;-70
2023/09/05 01:00:13;;;;;;;7.73;7.03;;;;;;;;;;5104569;28;20210;-70
2023/09/05 01:02:41;;;;;;;7.10;6.50;;;;;;;;;;5091262;28;20204;-70
2023/09/05 01:05:08;;;;;;;7.70;7.00;;;;;;;;;;5093883;28;20233;-70
2023/09/05 01:07:49;;;;;;;6.90;6.27;;;;;;;;;;5101501;28;20211;-70
2023/09/05 01:10:22;;;;;;;8.23;7.43;;;;;;;;;;5096105;28;20237;-70
2023/09/05 01:12:49;;;;;;;8.03;7.23;;;;;;;;;;5111074;28;20695;-70
2023/09/05 01:15:16;;;;;;;7.80;7.03;;;;;;;;;;5104069;28;20261;-70
2023/09/05 01:17:44;;;;;;;7.50;6.80;;;;;;;;;;5104369;28;20199;-71
2023/09/05 01:20:14;;;;;;;8.27;7.47;;;;;;;;;;5091073;28;20197;-70
2023/09/05 01:22:50;;;;;;;7.87;7.17;;;;;;;;;;5103761;28;20606;-70
2023/09/05 01:25:19;;;;;;;7.67;6.97;;;;;;;;;;5091039;28;20312;-70
2023/09/05 01:27:48;;;;;;;7.87;7.10;;;;;;;;;;5092551;28;20685;-70
2023/09/05 01:30:15;;;;;;;7.43;6.83;;;;;;;;;;5101401;28;20226;-70
2023/09/05 01:32:42;;;;;;;7.50;6.80;;;;;;;;;;5090589;28;20216;-70
2023/09/05 01:35:09;;;;;;;7.87;7.00;;;;;;;;;;5090900;28;20203;-69
2023/09/05 01:37:36;;;;;;;7.53;6.80;;;;;;;;;;5090485;28;20195;-69
2023/09/05 01:40:02;;;;;;;7.03;6.43;;;;;;;;;;5094327;28;20629;-70
2023/09/05 01:42:31;;;;;;;8.00;7.17;;;;;;;;;;5108236;28;20195;-70
2023/09/05 01:44:57;;;;;;;7.07;6.37;;;;;;;;;;5094511;28;20210;-70
2023/09/05 01:47:24;;;;;;;7.33;6.50;;;;;;;;;;5107980;28;20629;-69
2023/09/05 01:49:51;;;;;;;7.53;6.93;;;;;;;;;;5094516;28;20731;-70
2023/09/05 01:52:17;;;;;;;7.07;6.47;;;;;;;;;;5099062;28;20205;-69
2023/09/05 01:54:44;;;;;;;8.77;6.80;;;;;;;;;;5114771;28;20202;-70
2023/09/05 01:57:11;;;;;;;6.90;6.10;;;;;;;;;;5109669;28;20208;-70
2023/09/05 01:59:39;;;;;;;7.20;6.70;;;;;;;;;;5094923;28;20198;-70
2023/09/05 02:02:06;;;;;;;7.70;6.97;;;;;;;;;;5107637;28;20199;-70
2023/09/05 02:04:32;;;;;;;8.30;6.57;;;;;;;;;;5106915;28;20765;-69
2023/09/05 02:06:59;;;;;;;7.67;7.00;;;;;;;;;;5114126;28;20202;-69
2023/09/05 02:09:26;;;;;;;7.13;6.63;;;;;;;;;;5114644;28;20230;-69
2023/09/05 02:11:53;;;;;;;6.90;6.30;;;;;;;;;;5114526;28;20204;-69
2023/09/05 02:14:19;;;;;;;8.20;7.40;;;;;;;;;;5114589;28;20202;-69
2023/09/05 02:16:47;;;;;;;7.50;6.87;;;;;;;;;;5107325;28;20208;-70
2023/09/05 02:19:15;;;;;;;7.63;7.03;;;;;;;;;;5094042;28;20265;-70
2023/09/05 02:21:42;;;;;;;8.47;7.10;;;;;;;;;;5094171;28;20237;-69
2023/09/05 02:24:09;;;;;;;8.03;7.23;;;;;;;;;;5107688;28;20210;-70
2023/09/05 02:26:37;;;;;;;7.07;6.47;;;;;;;;;;5094986;28;20200;-69
2023/09/05 02:29:03;;;;;;;7.63;7.03;;;;;;;;;;5094005;28;20606;-69
2023/09/05 02:31:31;;;;;;;7.07;6.33;;;;;;;;;;5113491;28;20667;-70
2023/09/05 02:33:59;;;;;;;7.83;7.17;;;;;;;;;;5113876;28;20738;-69
2023/09/05 02:36:30;;;;;;;8.10;7.40;;;;;;;;;;5093383;28;20204;-69
2023/09/05 02:38:58;;;;;;;7.10;6.40;;;;;;;;;;5094373;28;20202;-70
2023/09/05 02:41:25;;;;;;;7.63;7.03;;;;;;;;;;5112675;28;20207;-69
2023/09/05 02:43:51;;;;;;;8.63;6.40;;;;;;;;;;5114137;28;20198;-69
2023/09/05 02:46:18;;;;;;;7.70;6.23;;;;;;;;;;5113584;28;20211;-69
2023/09/05 02:48:45;;;;;;;10.60;6.83;;;;;;;;;;5100159;28;20206;-70
2023/09/05 02:51:14;;;;;;;6.80;6.30;;;;;;;;;;5100364;28;20637;-69
2023/09/05 02:53:40;;;;;;;7.43;6.73;;;;;;;;;;5093370;28;20202;-70
2023/09/05 02:56:07;;;;;;;6.80;6.10;;;;;;;;;;5106917;28;20202;-69
2023/09/05 02:58:34;;;;;;;7.63;6.93;;;;;;;;;;5100096;28;20211;-69
2023/09/05 03:01:02;;;;;;;6.93;6.33;;;;;;;;;;5099889;28;20199;-69
2023/09/05 03:03:29;;;;;;;7.33;6.27;;;;;;;;;;5100303;28;20215;-69
2023/09/05 03:05:56;;;;;;;7.20;6.33;;;;;;;;;;5111551;28;20205;-69
2023/09/05 03:08:24;;;;;;;7.13;6.60;;;;;;;;;;5113231;28;20596;-69
2023/09/05 03:10:52;;;;;;;7.23;6.63;;;;;;;;;;5107701;28;20233;-69
2023/09/05 03:13:19;;;;;;;7.50;6.90;;;;;;;;;;5093761;28;20388;-70
2023/09/05 03:15:46;;;;;;;8.17;7.47;;;;;;;;;;5093203;28;20206;-70
2023/09/05 03:18:13;;;;;;;7.73;7.10;;;;;;;;;;5093545;28;20212;-69
2023/09/05 03:20:39;;;;;;;7.53;6.93;;;;;;;;;;5104922;28;20466;-70
2023/09/05 03:23:07;;;;;;;7.80;7.20;;;;;;;;;;5093101;28;20199;-69
2023/09/05 03:25:35;;;;;;;7.47;6.87;;;;;;;;;;5092259;28;20251;-70
2023/09/05 03:28:03;;;;;;;7.77;6.73;;;;;;;;;;5092742;28;20205;-71
2023/09/05 03:30:29;;;;;;;7.47;6.83;;;;;;;;;;5092122;28;20262;-71
2023/09/05 03:32:56;;;;;;;8.47;7.63;;;;;;;;;;5110698;28;20571;-70
2023/09/05 03:35:23;;;;;;;7.83;7.23;;;;;;;;;;5112687;28;20206;-71
2023/09/05 03:37:50;;;;;;;8.33;7.00;;;;;;;;;;5098926;28;20202;-70
2023/09/05 03:40:17;;;;;;;9.03;6.57;;;;;;;;;;5100386;28;20697;-70
2023/09/05 03:42:48;;;;;;;7.17;6.57;;;;;;;;;;5106003;28;20206;-71
2023/09/05 03:45:15;;;;;;;7.60;6.90;;;;;;;;;;5105515;28;20209;-74
2023/09/05 03:47:42;;;;;;;7.60;6.10;;;;;;;;;;5099022;28;20696;-74
2023/09/05 03:50:09;;;;;;;9.27;5.93;;;;;;;;;;5099354;28;20231;-74
2023/09/05 03:52:36;;;;;;;5.97;5.47;;;;;;;;;;5091800;28;20710;-74
2023/09/05 03:55:03;;;;;;;6.30;5.83;;;;;;;;;;5105625;28;20702;-73
2023/09/05 03:57:29;;;;;;;5.40;5.00;;;;;;;;;;5100122;28;20202;-73
2023/09/05 03:59:57;;;;;;;4.50;4.20;;;;;;;;;;5092860;28;20258;-73
2023/09/05 04:02:24;;;;;;;4.10;3.80;;;;;;;;;;5103992;28;20646;-74
2023/09/05 04:04:55;;;;;;;3.93;3.60;;;;;;;;;;5092038;28;20203;-73
2023/09/05 04:07:22;;;;;;;3.57;3.27;;;;;;;;;;5102937;28;20289;-74
2023/09/05 04:09:49;;;;;;;3.37;3.17;;;;;;;;;;5091844;28;20693;-72
2023/09/05 04:12:16;;;;;;;2.77;2.57;;;;;;;;;;5105718;28;20683;-73
2023/09/05 04:14:43;;;;;;;2.33;2.23;;;;;;;;;;5111879;28;20668;-72
2023/09/05 04:17:11;;;;;;;2.53;2.33;;;;;;;;;;5111147;28;20206;-72
2023/09/05 04:19:38;;;;;;;3.07;2.87;;;;;;;;;;5092442;28;20246;-72
2023/09/05 04:22:04;;;;;;;2.23;2.13;;;;;;;;;;5104908;28;20205;-75
2023/09/05 04:24:31;;;;;;;2.20;2.10;;;;;;;;;;5091363;28;20202;-75
2023/09/05 04:26:59;;;;;;;2.50;2.30;;;;;;;;;;5106788;28;20573;-75
2023/09/05 04:29:26;;;;;;;2.20;2.10;;;;;;;;;;5096637;28;20213;-75
2023/09/05 04:31:52;;;;;;;2.70;2.50;;;;;;;;;;5110635;28;20204;-75
2023/09/05 04:34:21;;;;;;;2.50;2.30;;;;;;;;;;5108159;28;20250;-74
2023/09/05 04:36:47;;;;;;;2.77;2.57;;;;;;;;;;5090620;28;20848;-75
2023/09/05 04:39:14;;;;;;;3.20;2.50;;;;;;;;;;5104406;28;20199;-75
2023/09/05 04:41:41;;;;;;;3.93;2.50;;;;;;;;;;5090334;28;20621;-75
2023/09/05 04:44:08;;;;;;;3.30;2.50;;;;;;;;;;5091566;28;20636;-75
2023/09/05 04:46:38;;;;;;;3.23;3.03;;;;;;;;;;5091294;28;20653;-75
2023/09/05 04:49:05;;;;;;;4.07;3.77;;;;;;;;;;5095279;28;20233;-75
2023/09/05 04:51:33;;;;;;;4.10;3.70;;;;;;;;;;5111360;28;20237;-75
2023/09/05 04:53:59;;;;;;;5.13;4.70;;;;;;;;;;5092524;28;20210;-75
2023/09/05 04:56:26;;;;;;;4.93;4.40;;;;;;;;;;5101898;28;20204;-75
2023/09/05 04:58:53;;;;;;;5.00;4.60;;;;;;;;;;5105951;28;20203;-75
2023/09/05 05:01:20;;;;;;;5.70;5.20;;;;;;;;;;5101803;28;20682;-75
2023/09/05 05:03:47;;;;;;;6.10;5.60;;;;;;;;;;5105889;28;20617;-75
2023/09/05 05:06:13;;;;;;;6.47;5.97;;;;;;;;;;5102194;28;20206;-75
2023/09/05 05:08:42;;;;;;;5.83;5.33;;;;;;;;;;5097058;28;20606;-75
2023/09/05 05:11:08;;;;;;;6.40;5.90;;;;;;;;;;5098540;28;20236;-75
2023/09/05 05:13:35;;;;;;;7.17;6.47;;;;;;;;;;5103974;28;21127;-75
2023/09/05 05:16:02;;;;;;;6.77;6.17;;;;;;;;;;5103315;28;20264;-75
2023/09/05 05:18:29;;;;;;;6.63;6.13;;;;;;;;;;5104939;28;20292;-75
2023/09/05 05:20:55;;;;;;;7.73;7.03;;;;;;;;;;5090670;28;20213;-75
2023/09/05 05:23:22;;;;;;;7.43;6.83;;;;;;;;;;5104243;28;20210;-75
2023/09/05 05:25:50;;;;;;;6.87;6.27;;;;;;;;;;5103730;28;20216;-75
2023/09/05 05:28:17;;;;;;;7.63;7.03;;;;;;;;;;5097267;28;20201;-75
2023/09/05 05:30:44;;;;;;;7.87;7.17;;;;;;;;;;5097022;28;20227;-75
2023/09/05 05:33:11;;;;;;;7.50;6.80;;;;;;;;;;5104413;28;20209;-75
2023/09/05 05:35:37;;;;;;;6.87;6.27;;;;;;;;;;5104200;28;20263;-75
2023/09/05 05:38:04;;;;;;;8.77;6.47;;;;;;;;;;5090638;28;20208;-75
2023/09/05 05:40:32;;;;;;;8.83;6.87;;;;;;;;;;5090231;28;20205;-75
2023/09/05 05:43:00;;;;;;;8.67;6.30;;;;;;;;;;5090602;28;20252;-74
2023/09/05 05:45:27;;;;;;;9.53;6.23;;;;;;;;;;5090498;28;20201;-75
2023/09/05 05:47:55;;;;;;;6.70;6.17;;;;;;;;;;5098495;28;20740;-75
2023/09/05 05:50:22;;;;;;;6.90;6.20;;;;;;;;;;5096669;28;20274;-75
2023/09/05 05:52:49;;;;;;;6.90;6.27;;;;;;;;;;5110895;28;20201;-75
2023/09/05 05:55:16;;;;;;;6.13;5.63;;;;;;;;;;5109027;28;20203;-75
2023/09/05 05:57:43;;;;;;;8.40;6.57;;;;;;;;;;5090744;28;20205;-75
2023/09/05 06:00:11;;;;;;;6.67;6.07;;;;;;;;;;5103849;28;20300;-75
2023/09/05 06:02:39;;;;;;;7.97;7.27;;;;;;;;;;5090154;28;20211;-75
2023/09/05 06:05:07;;;;;;;7.17;6.57;;;;;;;;;;5106724;28;20212;-75
2023/09/05 06:07:34;;;;;;;7.10;6.20;;;;;;;;;;5101038;28;20236;-75
2023/09/05 06:10:01;;;;;;;8.20;7.13;;;;;;;;;;5093143;28;20231;-75
2023/09/05 06:12:28;;;;;;;11.83;7.67;;;;;;;;;;5110513;28;20202;-75
2023/09/05 06:14:55;;;;;;;8.57;7.57;;;;;;;;;;5106832;28;20199;-74
2023/09/05 06:17:23;;;;;;;7.13;6.47;;;;;;;;;;5100264;28;20202;-75
2023/09/05 06:19:50;;;;;;;7.03;6.43;;;;;;;;;;5097310;28;20199;-74
2023/09/05 06:22:18;;;;;;;7.60;6.83;;;;;;;;;;5099943;28;20294;-75
2023/09/05 06:24:44;;;;;;;8.97;6.83;;;;;;;;;;5090316;28;20202;-75
2023/09/05 06:27:11;;;;;;;8.27;7.47;;;;;;;;;;5104565;28;20684;-75
2023/09/05 06:29:38;;;;;;;7.40;6.80;;;;;;;;;;5100623;28;20260;-75
2023/09/05 06:32:06;;;;;;;8.23;7.57;;;;;;;;;;5114002;28;20240;-75
2023/09/05 06:34:34;;;;;;;11.67;7.27;;;;;;;;;;5114160;28;20208;-74
2023/09/05 06:37:01;;;;;;;8.33;7.47;;;;;;;;;;5114031;28;20315;-75
2023/09/05 06:39:28;;;;;;;8.20;7.40;;;;;;;;;;5095474;28;20199;-75
2023/09/05 06:41:55;;;;;;;7.80;7.07;;;;;;;;;;5105090;28;20206;-75
2023/09/05 06:44:21;;;;;;;7.37;6.77;;;;;;;;;;5109138;28;20257;-75
2023/09/05 06:46:48;;;;;;;8.73;7.83;;;;;;;;;;5093346;28;20613;-75
2023/09/05 06:49:15;;;;;;;8.63;7.77;;;;;;;;;;5093291;28;20681;-75
2023/09/05 06:51:43;;;;;;;7.90;7.23;;;;;;;;;;5093180;28;20710;-75
2023/09/05 06:54:10;;;;;;;8.03;7.43;;;;;;;;;;5093383;28;20257;-75
2023/09/05 06:56:36;;;;;;;8.93;8.13;;;;;;;;;;5105756;28;20657;-75
2023/09/05 06:59:04;;;;;;;9.83;7.77;;;;;;;;;;5107233;28;20203;-75
2023/09/05 07:01:32;;;;;;;8.30;7.37;;;;;;;;;;5093088;28;20209;-75
2023/09/05 07:03:59;;;;;;;8.60;7.00;;;;;;;;;;5100158;28;20233;-75
2023/09/05 07:06:26;;;;;;;7.93;7.13;;;;;;;;;;5113351;28;20199;-75
2023/09/05 07:08:54;;;;;;;7.30;6.70;;;;;;;;;;5099836;28;20192;-74
2023/09/05 07:11:21;;;;;;;7.63;6.90;;;;;;;;;;5100126;28;20607;-75
2023/09/05 07:13:47;;;;;;;7.97;6.90;;;;;;;;;;5106395;28;20215;-75
2023/09/05 07:16:14;;;;;;;7.50;6.83;;;;;;;;;;5106474;28;20500;-75
2023/09/05 07:18:41;;;;;;;10.30;7.17;;;;;;;;;;5093101;28;20206;-74
2023/09/05 07:21:08;;;;;;;6.63;6.13;;;;;;;;;;5092394;28;20223;-75
2023/09/05 07:23:34;;;;;;;8.00;6.93;;;;;;;;;;5100680;28;20215;-76
2023/09/05 07:26:05;;;;;;;10.47;6.77;;;;;;;;;;5111593;28;21079;-75
2023/09/05 07:28:33;;;;;;;6.57;5.97;;;;;;;;;;5101639;28;20210;-75
2023/09/05 07:31:00;;;;;;;6.70;6.10;;;;;;;;;;5097324;28;20243;-75
2023/09/05 07:33:28;;;;;;;7.40;6.63;;;;;;;;;;5092979;28;20200;-75
2023/09/05 07:35:55;;;;;;;7.37;6.67;;;;;;;;;;5105774;28;20207;-76
2023/09/05 07:38:22;;;;;;;6.47;5.77;;;;;;;;;;5092914;28;20200;-75
2023/09/05 07:40:48;;;;;;;8.70;7.13;;;;;;;;;;5106306;28;20220;-75
2023/09/05 07:43:17;;;;;;;7.17;6.23;;;;;;;;;;5102379;28;20199;-76
2023/09/05 07:45:43;;;;;;;8.43;7.07;;;;;;;;;;5095410;28;20582;-75
2023/09/05 07:48:10;;;;;;;7.57;6.90;;;;;;;;;;5102762;28;20263;-75
2023/09/05 07:50:37;;;;;;;8.57;7.23;;;;;;;;;;5094989;28;20204;-76
2023/09/05 07:53:04;;;;;;;7.10;6.27;;;;;;;;;;5103221;28;20681;-75
2023/09/05 07:55:31;;;;;;;7.67;6.77;;;;;;;;;;5108007;28;20208;-74
2023/09/05 07:57:58;;;;;;;7.50;6.33;;;;;;;;;;5103333;28;20210;-75
2023/09/05 08:00:27;;;;;;;6.40;5.90;;;;;;;;;;5094764;28;20200;-75
2023/09/05 08:02:54;;;;;;;6.60;6.00;;;;;;;;;;5092398;28;20200;-74
2023/09/05 08:05:21;;;;;;;7.17;6.20;;;;;;;;;;5097483;28;20208;-75
2023/09/05 08:07:48;;;;;;;8.47;6.57;;;;;;;;;;5099511;28;20200;-75
2023/09/05 08:10:15;;;;;;;6.40;5.90;;;;;;;;;;5092046;28;20232;-75
2023/09/05 08:12:42;;;;;;;6.33;5.83;;;;;;;;;;5091603;28;20621;-75
2023/09/05 08:15:10;;;;;;;7.13;6.43;;;;;;;;;;5091507;28;20675;-75
2023/09/05 08:17:38;;;;;;;7.40;6.67;;;;;;;;;;5091650;28;20282;-75
2023/09/05 08:20:06;;;;;;;6.63;6.13;;;;;;;;;;5111679;28;20199;-75
2023/09/05 08:22:33;;;;;;;6.17;5.67;;;;;;;;;;5111596;28;20677;-75
2023/09/05 08:25:00;;;;;;;8.17;6.03;;;;;;;;;;5091717;28;20670;-75
2023/09/05 08:27:29;;;;;;;7.93;5.30;;;;;;;;;;5091254;28;20678;-76
2023/09/05 08:29:57;;;;;;;6.80;6.07;;;;;;;;;;5091883;28;20631;-75
2023/09/05 08:32:24;;;;;;;6.43;5.90;;;;;;;;;;5105051;28;20230;-75
2023/09/05 08:34:52;;;;;;;7.17;5.70;;;;;;;;;;5098985;28;20581;-75
2023/09/05 08:37:19;;;;;;;7.13;6.53;;;;;;;;;;5096873;28;20211;-75
2023/09/05 08:39:46;;;;;;;6.63;5.93;;;;;;;;;;5091491;28;20295;-75
2023/09/05 08:42:13;;;;;;;7.17;6.47;;;;;;;;;;5105415;28;20277;-75
2023/09/05 08:44:41;;;;;;;6.83;6.23;;;;;;;;;;5111527;28;20195;-75
2023/09/05 08:47:08;;;;;;;6.50;5.40;;;;;;;;;;5098281;28;20211;-75
2023/09/05 08:49:37;;;;;;;6.13;5.63;;;;;;;;;;5102986;28;20200;-75
2023/09/05 08:52:07;;;;;;;9.13;7.13;;;;;;;;;;5090810;28;20228;-75
2023/09/05 08:54:34;;;;;;;6.83;5.57;;;;;;;;;;5100680;28;20257;-75
2023/09/05 08:57:02;;;;;;;6.47;5.97;;;;;;;;;;5094351;28;20196;-75
2023/09/05 08:59:31;;;;;;;6.30;5.67;;;;;;;;;;5101206;28;20222;-75
2023/09/05 09:01:59;;;;;;;7.57;6.80;;;;;;;;;;5098082;28;20195;-75
2023/09/05 09:04:26;;;;;;;7.57;5.67;;;;;;;;;;5100642;28;20204;-75
2023/09/05 09:06:57;;;;;;;6.40;5.77;;;;;;;;;;5094688;28;20204;-75
2023/09/05 09:09:40;;;;;;;7.50;6.73;;;;;;;;;;5099498;28;20200;-75
2023/09/05 09:12:07;;;;;;;7.20;5.57;;;;;;;;;;5090896;28;20215;-75
2023/09/05 09:14:34;;;;;;;6.43;5.83;;;;;;;;;;5091610;28;20204;-75
2023/09/05 09:17:01;;;;;;;7.87;5.47;;;;;;;;;;5103955;28;20196;-75
2023/09/05 09:19:29;;;;;;;6.07;5.50;;;;;;;;;;5091829;28;20735;-75
2023/09/05 09:22:00;;;;;;;8.07;5.40;;;;;;;;;;5103166;28;20207;-75
2023/09/05 09:24:33;;;;;;;6.77;5.53;;;;;;;;;;5106530;28;20199;-76
2023/09/05 09:27:03;;;;;;;6.93;5.43;;;;;;;;;;5101577;28;20625;-75
2023/09/05 09:29:31;;;;;;;5.90;5.40;;;;;;;;;;5094226;28;20207;-76
2023/09/05 09:32:03;;;;;;;8.70;5.53;;;;;;;;;;5110900;28;20222;-75
2023/09/05 09:34:30;;;;;;;6.70;6.00;;;;;;;;;;5106833;28;20196;-75
2023/09/05 09:36:58;;;;;;;6.10;5.50;;;;;;;;;;5091022;28;20219;-76
2023/09/05 09:39:25;;;;;;;6.17;5.57;;;;;;;;;;5104123;28;20192;-76
2023/09/05 09:41:52;;;;;;;6.23;5.73;;;;;;;;;;5102014;28;20251;-76
2023/09/05 09:44:29;;;;;;;7.37;5.10;;;;;;;;;;5092520;28;20208;-76
2023/09/05 09:46:58;;;;;;;7.33;5.47;;;;;;;;;;5103936;28;20227;-75
2023/09/05 09:49:26;;;;;;;5.83;5.10;;;;;;;;;;5097345;28;20207;-75
2023/09/05 09:51:57;;;;;;;9.53;5.70;;;;;;;;;;5109827;28;20717;-75
2023/09/05 09:54:31;;;;;;;6.53;5.93;;;;;;;;;;5090968;28;20204;-75
2023/09/05 09:57:00;;;;;;;7.40;5.00;;;;;;;;;;5104066;28;20285;-76
2023/09/05 09:59:35;;;;;;;5.57;4.37;;;;;;;;;;5090453;28;20674;-75
2023/09/05 10:02:05;;;;;;;5.47;4.90;;;;;;;;;;5111364;28;20692;-75
2023/09/05 10:04:32;;;;;;;7.63;5.00;;;;;;;;;;5114755;28;20291;-75
2023/09/05 10:07:00;;;;;;;6.37;5.53;;;;;;;;;;5096651;28;20200;-76
2023/09/05 10:09:30;;;;;;;7.17;5.47;;;;;;;;;;5093930;28;20213;-76
2023/09/05 10:11:58;;;;;;;5.50;4.83;;;;;;;;;;5094083;28;20220;-75
2023/09/05 10:14:25;;;;;;;7.33;5.00;;;;;;;;;;5107052;28;20218;-75
2023/09/05 10:16:54;;;;;;;7.20;5.47;;;;;;;;;;5107905;28;20196;-76
2023/09/05 10:19:22;;;;;;;8.13;4.90;;;;;;;;;;5107333;28;20272;-76
2023/09/05 10:21:51;;;;;;;5.87;5.33;;;;;;;;;;5114749;28;20199;-76
2023/09/05 10:24:18;;;;;;;5.60;5.20;;;;;;;;;;5114197;28;20309;-75
2023/09/05 10:26:45;;;;;;;7.23;4.77;;;;;;;;;;5093953;28;20283;-76
2023/09/05 10:29:33;;;;;;;5.07;4.53;;;;;;;;;;5094154;28;20216;-76
2023/09/05 10:32:02;;;;;;;5.00;4.50;;;;;;;;;;5103881;28;20589;-76
2023/09/05 10:34:58;;;;;;;7.20;5.00;;;;;;;;;;5111887;28;20192;-76
2023/09/05 10:37:28;;;;;;;8.57;5.33;;;;;;;;;;5100182;28;20208;-76
2023/09/05 10:39:57;;;;;;;5.07;4.67;;;;;;;;;;5105495;28;20207;-76
2023/09/05 10:42:29;;;;;;;5.80;5.10;;;;;;;;;;5109408;28;20207;-76
2023/09/05 10:44:59;;;;;;;5.23;4.63;;;;;;;;;;5103905;28;20208;-76
2023/09/05 10:47:29;;;;;;;5.87;5.37;;;;;;;;;;5107225;28;20201;-76
2023/09/05 10:49:59;;;;;;;6.47;5.37;;;;;;;;;;5104921;28;20214;-76
2023/09/05 10:52:29;;;;;;;5.37;4.83;;;;;;;;;;5108212;28;20311;-75
2023/09/05 10:54:58;;;;;;;5.40;5.00;;;;;;;;;;5093390;28;20205;-76
2023/09/05 10:57:35;;;;;;;7.43;5.23;;;;;;;;;;5099930;28;20199;-76
2023/09/05 11:00:14;;;;;;;5.10;4.70;;;;;;;;;;5099173;28;20200;-76
2023/09/05 11:02:42;;;;;;;5.27;4.77;;;;;;;;;;5092852;28;20594;-76
2023/09/05 11:05:12;;;;;;;5.10;4.33;;;;;;;;;;5093731;28;20227;-76
2023/09/05 11:07:42;;;;;;;9.53;4.60;;;;;;;;;;5093308;28;20204;-76
2023/09/05 11:10:11;;;;;;;6.93;5.37;;;;;;;;;;5107179;28;20235;-75
2023/09/05 11:12:39;;;;;;;5.13;4.73;;;;;;;;;;5103595;28;20223;-76
2023/09/05 11:15:08;;;;;;;7.03;4.87;;;;;;;;;;5113039;28;20191;-75
2023/09/05 11:17:37;;;;;;;5.30;4.27;;;;;;;;;;5101372;28;20315;-75
2023/09/05 11:20:09;;;;;;;5.90;5.40;;;;;;;;;;5106661;28;20678;-75
2023/09/05 11:22:36;;;;;;;5.50;5.00;;;;;;;;;;5092831;28;20586;-76
2023/09/05 11:25:07;;;;;;;5.73;4.47;;;;;;;;;;5099288;28;20192;-75
2023/09/05 11:27:34;;;;;;;4.97;4.43;;;;;;;;;;5112707;28;20204;-75
2023/09/05 11:30:03;;;;;;;5.40;4.90;;;;;;;;;;5092608;28;20208;-75
2023/09/05 11:32:33;;;;;;;5.20;4.70;;;;;;;;;;5106160;28;20223;-75
2023/09/05 11:35:01;;;;;;;5.97;4.53;;;;;;;;;;5092719;28;20683;-76
2023/09/05 11:37:30;;;;;;;5.60;4.63;;;;;;;;;;5092276;28;20257;-76
2023/09/05 11:39:57;;;;;;;7.37;4.80;;;;;;;;;;5101315;28;20227;-76
2023/09/05 11:42:30;;;;;;;5.17;4.67;;;;;;;;;;5110362;28;20207;-76
2023/09/05 11:44:57;;;;;;;5.13;4.63;;;;;;;;;;5102862;28;20223;-76
2023/09/05 11:47:25;;;;;;;5.03;4.63;;;;;;;;;;5098557;28;20196;-76
2023/09/05 11:49:53;;;;;;;4.70;4.30;;;;;;;;;;5102326;28;20208;-76
2023/09/05 11:52:20;;;;;;;5.10;4.60;;;;;;;;;;5109623;28;20223;-75
2023/09/05 11:54:50;;;;;;;5.23;4.77;;;;;;;;;;5102184;28;20211;-76
2023/09/05 11:57:18;;;;;;;5.80;5.30;;;;;;;;;;5105478;28;20281;-76
2023/09/05 11:59:46;;;;;;;6.47;5.40;;;;;;;;;;5092377;28;20220;-76
2023/09/05 12:02:15;;;;;;;5.07;4.67;;;;;;;;;;5105456;28;20686;-76
2023/09/05 12:04:42;;;;;;;5.30;4.90;;;;;;;;;;5104945;28;20225;-76
2023/09/05 12:07:09;;;;;;;5.97;5.47;;;;;;;;;;5093198;28;20211;-77
2023/09/05 12:09:36;;;;;;;8.50;5.23;;;;;;;;;;5092003;28;20224;-78
2023/09/05 12:12:14;;;;;;;5.13;4.73;;;;;;;;;;5091705;28;20216;-77
2023/09/05 12:15:00;;;;;;;6.47;4.97;;;;;;;;;;5091980;28;20693;-77
2023/09/05 12:17:27;;;;;;;6.20;5.60;;;;;;;;;;5091980;28;20200;-77
2023/09/05 12:19:56;;;;;;;5.53;5.03;;;;;;;;;;5092115;28;20204;-76
2023/09/05 12:22:25;;;;;;;5.00;4.60;;;;;;;;;;5091228;28;20204;-76
2023/09/05 12:25:09;;;;;;;8.27;5.13;;;;;;;;;;5109403;28;20206;-76
2023/09/05 12:27:39;;;;;;;5.73;5.10;;;;;;;;;;5111837;28;20206;-76
2023/09/05 12:30:08;;;;;;;5.60;5.10;;;;;;;;;;5112008;28;20249;-76
2023/09/05 12:32:35;;;;;;;6.33;5.07;;;;;;;;;;5098303;28;20316;-76
2023/09/05 12:35:03;;;;;;;7.07;6.20;;;;;;;;;;5102805;28;20198;-76
2023/09/05 12:37:30;;;;;;;6.03;5.23;;;;;;;;;;5093940;28;20196;-76
2023/09/05 12:39:57;;;;;;;5.03;4.63;;;;;;;;;;5101996;28;20208;-76
2023/09/05 12:42:25;;;;;;;7.53;5.30;;;;;;;;;;5091517;28;20278;-76
2023/09/05 12:44:53;;;;;;;7.60;5.63;;;;;;;;;;5101325;28;20213;-76
2023/09/05 12:47:20;;;;;;;6.60;5.83;;;;;;;;;;5094327;28;20279;-76
2023/09/05 12:49:47;;;;;;;4.70;4.30;;;;;;;;;;5102268;28;20208;-76
2023/09/05 12:52:14;;;;;;;4.90;4.47;;;;;;;;;;5093499;28;20287;-76
2023/09/05 12:54:44;;;;;;;5.13;4.63;;;;;;;;;;5091331;28;20653;-76
2023/09/05 12:57:11;;;;;;;4.77;4.30;;;;;;;;;;5104790;28;20623;-76
2023/09/05 12:59:38;;;;;;;5.63;4.20;;;;;;;;;;5103501;28;20264;-76
2023/09/05 13:02:06;;;;;;;5.27;4.73;;;;;;;;;;5092412;28;20196;-76
2023/09/05 13:04:33;;;;;;;5.30;4.83;;;;;;;;;;5091383;28;20215;-76
2023/09/05 13:07:00;;;;;;;5.03;4.23;;;;;;;;;;5091089;28;20200;-76
2023/09/05 13:09:26;;;;;;;4.77;4.37;;;;;;;;;;5103537;28;20248;-76
2023/09/05 13:11:53;;;;;;;5.10;4.60;;;;;;;;;;5091972;28;20207;-76
2023/09/05 13:14:20;;;;;;;8.57;4.40;;;;;;;;;;5103737;28;20227;-76
2023/09/05 13:16:47;;;;;;;5.73;4.93;;;;;;;;;;5091532;28;20206;-76
2023/09/05 13:19:15;;;;;;;5.00;4.57;;;;;;;;;;5090952;28;20201;-76
2023/09/05 13:21:42;;;;;;;4.73;4.33;;;;;;;;;;5079511;28;20248;-76
2023/09/05 13:24:09;;;;;;;4.33;3.97;;;;;;;;;;5098064;28;20268;-76
2023/09/05 13:26:35;;;;;;;5.63;5.07;;;;;;;;;;5097956;28;20199;-76
2023/09/05 13:29:02;;;;;;;5.47;4.47;;;;;;;;;;5111208;28;20223;-76
2023/09/05 13:31:30;;;;;;;5.67;4.07;;;;;;;;;;5104494;28;20204;-76
2023/09/05 13:33:56;;;;;;;5.53;4.63;;;;;;;;;;5090755;28;20310;-76
2023/09/05 13:36:25;;;;;;;4.60;4.00;;;;;;;;;;5095035;28;20200;-76
2023/09/05 13:38:51;;;;;;;6.87;6.03;;;;;;;;;;5108364;28;20203;-76
2023/09/05 13:41:19;;;;;;;6.03;4.97;;;;;;;;;;5107923;28;20204;-76
2023/09/05 13:43:46;;;;;;;4.90;4.47;;;;;;;;;;5108676;28;20205;-76
2023/09/05 13:46:13;;;;;;;4.50;4.10;;;;;;;;;;5107710;28;20208;-76
2023/09/05 13:48:39;;;;;;;8.07;4.23;;;;;;;;;;5095829;28;20287;-76
2023/09/05 13:51:07;;;;;;;4.93;4.40;;;;;;;;;;5106970;28;20202;-76
2023/09/05 13:53:35;;;;;;;7.37;4.63;;;;;;;;;;5108322;28;20230;-76
2023/09/05 13:56:02;;;;;;;6.70;4.00;;;;;;;;;;5094316;28;20197;-76
2023/09/05 13:58:29;;;;;;;4.70;4.30;;;;;;;;;;5096231;28;20254;-76
2023/09/05 14:00:56;;;;;;;5.23;4.73;;;;;;;;;;5105775;28;20196;-76
2023/09/05 14:03:23;;;;;;;8.37;5.23;;;;;;;;;;5109800;28;20207;-76
2023/09/05 14:05:50;;;;;;;5.20;4.50;;;;;;;;;;5114605;28;20208;-76
2023/09/05 14:08:17;;;;;;;6.07;4.80;;;;;;;;;;5114456;28;20599;-76
2023/09/05 14:10:47;;;;;;;5.10;4.63;;;;;;;;;;5105512;28;20227;-76
2023/09/05 14:13:16;;;;;;;4.20;3.90;;;;;;;;;;5094666;28;20242;-76
2023/09/05 14:15:43;;;;;;;5.10;4.00;;;;;;;;;;5094101;28;20215;-76
2023/09/05 14:18:12;;;;;;;6.30;4.13;;;;;;;;;;5097763;28;20692;-77
2023/09/05 14:20:39;;;;;;;5.67;5.07;;;;;;;;;;5114383;28;20677;-77
2023/09/05 14:23:06;;;;;;;11.20;5.60;;;;;;;;;;5109780;28;20208;-77
2023/09/05 14:25:33;;;;;;;5.80;5.17;;;;;;;;;;5094499;28;20287;-77
2023/09/05 14:28:01;;;;;;;5.70;5.10;;;;;;;;;;5093914;28;20635;-77
2023/09/05 14:30:28;;;;;;;8.93;5.23;;;;;;;;;;5093586;28;20196;-77
2023/09/05 14:32:55;;;;;;;5.77;5.27;;;;;;;;;;5111898;28;20280;-78
2023/09/05 14:35:21;;;;;;;5.27;4.50;;;;;;;;;;5114517;28;20203;-79
2023/09/05 14:37:49;;;;;;;5.53;4.90;;;;;;;;;;5100244;28;20263;-78
2023/09/05 14:40:16;;;;;;;5.13;4.67;;;;;;;;;;5102187;28;20200;-80
2023/09/05 14:42:43;;;;;;;5.53;5.03;;;;;;;;;;5093975;28;20196;-80
2023/09/05 14:45:12;;;;;;;5.13;4.30;;;;;;;;;;5106035;28;20203;-79
2023/09/05 14:47:39;;;;;;;5.97;4.43;;;;;;;;;;5093732;28;20283;-78